Terminal Aerodrome Forecast
Issued by NWS Buffalo, NY

Home | Current Version | Previous Version | Text Only | Print | Product List | Glossary On
Versions: 1 2 3 4 5 6 7 8 9 10 11 12 13 14 15 16 17 18 19 20 21 22 23 24 25 26
000
FTUS41 KBUF 260530
TAFART
TAF
KART 260530Z 2606/2706 21008KT 2SM -RA BR OVC002
      TEMPO 2606/2607 1SM -SHRA BR OVC003
     FM260900 22013KT 3SM -SHRA BR OVC012
      TEMPO 2609/2612 1SM -SHRA BR OVC007
     FM261200 22013KT 5SM -SHRA BR OVC012
      TEMPO 2612/2615 3SM -SHRA BR OVC007
     FM261500 25011KT P6SM VCSH OVC012
     FM261700 25011KT P6SM OVC012
     FM262300 23009KT P6SM SCT035
     FM270200 21008KT P6SM SCT250=

USA.gov is the U.S. government's official web portal to all federal, state and local government web resources and services.